Skip Navigation Links
NOAA logo - Click to go to the NOAA homepage
NOAA's National Weather Service
Alaska Aviation Weather Unit
  NWS logo - Click to go to the NWS homepage
Left Navbar Graphic     09 AKDT = 17 GMT

   
NOAA is celebrating 200 years of science, service, and stewardship. Visit the NOAA 200th celebration Web site to learn more.
USA.gov is the U.S. Government's official Web portal to all Federal, state and local government Web resources and services.
Facebook
NWS on Facebook

Important Change Regarding the AAWU Web Presence

 

Over the last several months, the AAWU has been working to navigate its webpages to a nationally supported server. Security, as well as other needs, have necessitated the change.  In the process, we have made an effort to enhance the functionality of our website, as well as some of our products. As of June 20, 2017, aawu.arh.noaa.gov will be discontinued. The new AAWU web address is weather.gov/aawu. It is now live and will run in-parallel with the old site until it is discontinued. Please send any feedback or questions regarding the new webpages to nws.ar.aawu.webauthors@noaa.gov.  Thank you for your patience during this time of transition.
AAWU Home :: Display TAF Add Bookmark
METAR PADM 271156Z AUTO 00000KT 10SM BKN027 00/M01 A2995 RMK AO2 SLP151
     60000 70010 T00001011 10050 21006 58001 FZRANO=

SPECI PADM 271234Z AUTO 07003KT 10SM SCT023 M01/M01 A2995 RMK AO2
     FZRANO=

METAR PADM 271256Z AUTO 00000KT 10SM BKN021 00/M01 A2995 RMK AO2 SLP152
     T00001006 FZRANO=

METAR PADM 271356Z AUTO VRB03KT 10SM OVC021 01/00 A2995 RMK AO2 SLP152
     T00110000 FZRANO=

SPECI PADM 271443Z AUTO 08006KT 10SM SCT021 OVC030 01/00 A2995 RMK AO2
     FZRANO=

SPECI PADM 271452Z AUTO VRB05KT 10SM FEW021 OVC028 01/00 A2995 RMK
    AO2 FZRANO=

METAR PADM 271456Z AUTO 10005KT 10SM FEW021 BKN028 OVC070 02/00
    A2995 RMK AO2 SLP152 T00170000 50000 FZRANO=

SPECI PADM 271537Z AUTO 11005KT 10SM SCT019 OVC070 02/00 A2995 RMK AO2
     FZRANO=

METAR PADM 271556Z AUTO 09004KT 10SM FEW019 OVC070 02/00 A2995 RMK AO2
     SLP152 T00220000 FZRANO=

SPECI PADM 271615Z AUTO VRB06KT 10SM FEW019 BKN028 OVC070 02/00 A2995
     RMK AO2 FZRANO=

METAR PADM 271656Z AUTO 07006KT 10SM OVC027 03/01 A2995 RMK AO2 SLP152
     T00330006=


NOAA's National Weather Service
Alaska Aviation Weather Unit
6930 Sand Lake Road
Anchorage, AK 99502-1845
Disclaimer
Credits
Glossary
Privacy Policy
About Us
Career Opportunities
Contact AAWU Internet Services Site last modified: April, 17th 2012